Time;durP1;ratioP1;P1;durP2;ratioP2;P2;SDS_P1;SDS_P2;PMS_P1;PMS_P2;Temp;Humidity;BMP_temperature;BMP_pressure;BME280_temperature;BME280_humidity;BME280_pressure;Samples;Min_cycle;Max_cycle;Signal;HPM_P1;HPM_P2
2021/10/17 00:02:23;;;;;;;7.32;1.98;;;8.80;99.90;;;;;;4994259;28;20481;-88
2021/10/17 00:04:49;;;;;;;6.40;2.35;;;8.80;99.90;;;;;;4994513;28;20037;-87
2021/10/17 00:07:15;;;;;;;5.78;2.00;;;8.80;99.90;;;;;;4994160;28;20094;-88
2021/10/17 00:09:41;;;;;;;5.78;2.30;;;8.80;99.90;;;;;;5010797;28;20466;-88
2021/10/17 00:12:09;;;;;;;4.43;1.70;;;8.80;99.90;;;;;;4994187;28;20061;-88
2021/10/17 00:14:34;;;;;;;10.05;2.55;;;8.80;99.90;;;;;;5009394;28;20060;-88
2021/10/17 00:17:01;;;;;;;4.90;2.38;;;8.80;99.90;;;;;;4993966;28;20045;-88
2021/10/17 00:19:26;;;;;;;5.30;1.80;;;8.80;99.90;;;;;;4994056;28;20029;-88
2021/10/17 00:21:52;;;;;;;7.50;3.00;;;8.80;99.90;;;;;;4993933;28;20034;-87
2021/10/17 00:24:18;;;;;;;5.57;2.75;;;8.80;99.90;;;;;;5010570;28;20034;-88
2021/10/17 00:26:43;;;;;;;7.20;1.95;;;8.80;99.90;;;;;;4993869;28;20084;-88
2021/10/17 00:29:09;;;;;;;6.75;2.00;;;8.80;99.90;;;;;;4994112;28;20026;-88
2021/10/17 00:31:35;;;;;;;5.25;1.90;;;8.80;99.90;;;;;;4993701;28;20028;-86
2021/10/17 00:34:01;;;;;;;8.10;2.25;;;8.80;99.90;;;;;;4993801;28;20177;-88
2021/10/17 00:36:28;;;;;;;4.97;2.13;;;8.80;99.90;;;;;;4993813;28;20494;-88
2021/10/17 00:38:54;;;;;;;4.55;2.13;;;8.80;99.90;;;;;;4993623;28;20025;-88
2021/10/17 00:41:20;;;;;;;7.35;2.78;;;8.80;99.90;;;;;;4993801;28;20033;-88
2021/10/17 00:43:46;;;;;;;11.00;2.97;;;8.80;99.90;;;;;;4993611;28;20034;-88
2021/10/17 00:46:21;;;;;;;6.03;2.17;;;8.80;99.90;;;;;;5009812;28;20080;-88
2021/10/17 00:48:47;;;;;;;4.68;2.10;;;8.80;99.90;;;;;;5009949;28;20061;-87
2021/10/17 00:51:13;;;;;;;5.53;1.95;;;8.80;99.90;;;;;;5010031;28;20083;-88
2021/10/17 00:53:40;;;;;;;5.78;1.67;;;8.80;99.90;;;;;;5009643;28;20032;-87
2021/10/17 00:56:06;;;;;;;5.50;1.88;;;8.80;99.90;;;;;;4992973;28;20037;-88
2021/10/17 00:58:32;;;;;;;3.90;1.45;;;8.80;99.90;;;;;;4993572;28;20045;-88
2021/10/17 01:00:58;;;;;;;6.13;1.63;;;8.80;99.90;;;;;;4993408;28;20030;-88
2021/10/17 01:03:24;;;;;;;7.88;1.60;;;8.80;99.90;;;;;;4993143;28;20040;-87
2021/10/17 01:05:50;;;;;;;4.72;1.42;;;8.80;99.90;;;;;;4993414;28;20034;-88
2021/10/17 01:08:16;;;;;;;4.90;1.40;;;8.80;99.90;;;;;;4993191;28;20092;-88
2021/10/17 01:10:43;;;;;;;4.07;1.95;;;8.80;99.90;;;;;;5009673;28;20030;-88
2021/10/17 01:13:24;;;;;;;7.18;1.90;;;8.80;99.90;;;;;;4993408;28;20029;-88
2021/10/17 01:15:55;;;;;;;7.78;1.30;;;8.80;99.90;;;;;;4993077;28;20045;-88
2021/10/17 01:18:26;;;;;;;5.80;1.70;;;8.80;99.90;;;;;;4993772;28;20034;-88
2021/10/17 01:20:55;;;;;;;7.55;1.83;;;8.80;99.90;;;;;;4993614;28;20375;-88
2021/10/17 01:23:21;;;;;;;4.60;1.75;;;8.80;99.90;;;;;;4992947;28;20061;-88
2021/10/17 01:25:47;;;;;;;3.67;1.60;;;8.80;99.90;;;;;;4992800;28;20030;-88
2021/10/17 01:28:14;;;;;;;5.70;1.90;;;8.70;99.90;;;;;;4992869;28;20363;-88
2021/10/17 01:30:40;;;;;;;6.13;1.70;;;8.70;99.90;;;;;;4993075;28;20034;-88
2021/10/17 01:33:05;;;;;;;6.43;1.83;;;8.70;99.90;;;;;;4992755;28;20049;-88
2021/10/17 01:35:32;;;;;;;4.10;1.42;;;8.70;99.90;;;;;;4993020;28;20040;-88
2021/10/17 01:37:58;;;;;;;5.55;2.30;;;8.70;99.90;;;;;;4992994;28;20022;-88
2021/10/17 01:40:23;;;;;;;7.43;1.70;;;8.80;99.90;;;;;;4993124;28;20026;-88
2021/10/17 01:42:50;;;;;;;4.82;1.50;;;8.80;99.90;;;;;;4992638;28;20037;-87
2021/10/17 01:45:17;;;;;;;6.20;1.45;;;8.80;99.90;;;;;;4993092;28;20033;-88
2021/10/17 01:47:46;;;;;;;4.45;1.45;;;8.70;99.90;;;;;;4989524;28;20026;-88
2021/10/17 01:50:13;;;;;;;5.15;1.55;;;8.70;99.90;;;;;;5005341;28;20030;-87
2021/10/17 01:52:41;;;;;;;5.30;1.20;;;8.80;99.90;;;;;;5005333;28;20030;-88
2021/10/17 01:55:08;;;;;;;5.95;1.35;;;8.80;99.90;;;;;;5008502;28;20053;-88
2021/10/17 01:57:34;;;;;;;5.00;1.55;;;8.70;99.90;;;;;;4992497;28;20057;-87
2021/10/17 02:00:00;;;;;;;6.35;1.63;;;8.70;99.90;;;;;;4992715;28;20116;-88
2021/10/17 02:02:39;;;;;;;5.47;1.77;;;8.70;99.90;;;;;;5010902;28;20097;-87
2021/10/17 02:05:06;;;;;;;4.18;1.50;;;8.70;99.90;;;;;;4992901;28;20033;-89
2021/10/17 02:07:32;;;;;;;4.90;1.50;;;8.70;99.90;;;;;;4992525;28;20061;-88
2021/10/17 02:09:59;;;;;;;4.38;1.42;;;8.70;99.90;;;;;;4992913;28;20086;-88
2021/10/17 02:12:27;;;;;;;4.80;2.08;;;8.70;99.90;;;;;;4992574;28;20030;-88
2021/10/17 02:14:54;;;;;;;5.07;1.45;;;8.70;99.90;;;;;;4992379;28;20053;-88
2021/10/17 02:17:22;;;;;;;5.43;1.60;;;8.70;99.90;;;;;;5008638;28;20045;-87
2021/10/17 02:19:49;;;;;;;5.50;1.67;;;8.70;99.90;;;;;;4992621;28;20082;-88
2021/10/17 02:22:16;;;;;;;4.15;2.28;;;8.70;99.90;;;;;;4992604;28;20026;-88
2021/10/17 02:24:42;;;;;;;6.40;1.77;;;8.70;99.90;;;;;;5008572;28;20104;-88
2021/10/17 02:27:08;;;;;;;9.82;1.90;;;8.70;99.90;;;;;;4992348;28;20030;-88
2021/10/17 02:29:38;;;;;;;5.28;1.52;;;8.70;99.90;;;;;;4992839;28;20032;-87
2021/10/17 02:32:19;;;;;;;4.65;2.40;;;8.70;99.90;;;;;;4994207;28;20077;-88
2021/10/17 02:34:49;;;;;;;5.03;1.48;;;8.70;99.90;;;;;;4992841;28;20482;-86
2021/10/17 02:37:15;;;;;;;4.57;1.38;;;8.70;99.90;;;;;;4992898;28;20048;-88
2021/10/17 02:39:41;;;;;;;8.05;1.98;;;8.70;99.90;;;;;;4995924;28;20030;-88
2021/10/17 02:42:06;;;;;;;5.78;1.35;;;8.70;99.90;;;;;;5012235;28;20037;-88
2021/10/17 02:44:55;;;;;;;3.80;1.23;;;8.70;99.90;;;;;;5012122;28;20106;-88
2021/10/17 02:47:23;;;;;;;4.40;1.40;;;8.70;99.90;;;;;;4937536;29;20031;-88
2021/10/17 02:49:49;;;;;;;5.00;1.42;;;8.60;99.90;;;;;;4936877;29;20066;-88
2021/10/17 02:52:17;;;;;;;4.90;1.98;;;8.70;99.90;;;;;;4937345;29;20071;-88
2021/10/17 02:54:43;;;;;;;4.05;1.27;;;8.60;99.90;;;;;;4928015;29;20059;-87
2021/10/17 02:57:09;;;;;;;4.97;1.65;;;8.60;99.90;;;;;;4933258;29;20055;-88
2021/10/17 02:59:35;;;;;;;3.72;1.30;;;8.60;99.90;;;;;;4933614;29;20039;-88
2021/10/17 03:02:00;;;;;;;5.53;2.40;;;8.60;99.90;;;;;;4933718;29;20419;-88
2021/10/17 03:04:26;;;;;;;4.47;1.75;;;8.70;99.90;;;;;;4933345;29;20035;-88
2021/10/17 03:06:55;;;;;;;6.00;2.05;;;8.60;99.90;;;;;;4934116;29;20075;-88
2021/10/17 03:09:21;;;;;;;3.33;1.70;;;8.60;99.90;;;;;;4933623;29;20044;-87
2021/10/17 03:11:47;;;;;;;6.97;1.80;;;8.60;99.90;;;;;;4933411;29;20052;-87
2021/10/17 03:14:13;;;;;;;4.80;2.33;;;8.70;99.90;;;;;;4933319;29;20042;-88
2021/10/17 03:16:41;;;;;;;5.22;1.95;;;8.60;99.90;;;;;;4933200;29;20039;-88
2021/10/17 03:19:10;;;;;;;5.88;2.20;;;8.70;99.90;;;;;;4933368;29;20028;-88
2021/10/17 03:21:37;;;;;;;5.45;2.13;;;8.60;99.90;;;;;;4933458;29;20031;-88
2021/10/17 03:24:03;;;;;;;5.32;1.88;;;8.60;99.90;;;;;;4959568;28;20033;-88
2021/10/17 03:26:29;;;;;;;7.35;2.10;;;8.60;99.90;;;;;;4995184;28;20026;-88
2021/10/17 03:28:54;;;;;;;7.68;2.00;;;8.60;99.90;;;;;;4995172;28;20045;-87
2021/10/17 03:31:20;;;;;;;7.10;2.05;;;8.60;99.90;;;;;;5011812;28;20030;-88
2021/10/17 03:33:49;;;;;;;6.53;2.35;;;8.60;99.90;;;;;;4995762;28;20045;-88
2021/10/17 03:36:17;;;;;;;5.18;2.42;;;8.60;99.90;;;;;;5012041;28;20061;-85
2021/10/17 03:38:43;;;;;;;6.63;2.10;;;8.60;99.90;;;;;;4994969;28;20052;-88
2021/10/17 03:41:13;;;;;;;6.53;2.38;;;8.60;99.90;;;;;;4995388;28;20040;-88
2021/10/17 03:43:43;;;;;;;7.70;2.28;;;8.60;99.90;;;;;;4995463;28;20030;-87
2021/10/17 03:46:09;;;;;;;7.00;2.05;;;8.60;99.90;;;;;;5010869;28;20104;-88
2021/10/17 03:48:35;;;;;;;5.72;2.00;;;8.60;99.90;;;;;;4990890;28;20045;-87
2021/10/17 03:51:08;;;;;;;8.88;1.98;;;8.60;99.90;;;;;;5007363;28;20026;-88
2021/10/17 03:53:35;;;;;;;5.18;2.40;;;8.60;99.90;;;;;;5007504;28;20049;-88
2021/10/17 03:56:01;;;;;;;3.95;1.85;;;8.60;99.90;;;;;;4990896;28;20060;-87
2021/10/17 03:58:27;;;;;;;7.00;2.53;;;8.60;99.90;;;;;;5007667;28;20034;-88
2021/10/17 04:00:53;;;;;;;8.30;1.90;;;8.60;99.90;;;;;;5007509;28;20022;-88
2021/10/17 04:03:19;;;;;;;7.78;3.33;;;8.60;99.90;;;;;;5007431;28;20038;-88
2021/10/17 04:05:46;;;;;;;6.57;2.00;;;8.60;99.90;;;;;;5007022;28;20030;-86
2021/10/17 04:08:12;;;;;;;5.20;2.25;;;8.60;99.90;;;;;;5007512;28;20029;-88
2021/10/17 04:10:38;;;;;;;7.47;3.22;;;8.50;99.90;;;;;;5007523;28;20030;-88
2021/10/17 04:13:04;;;;;;;8.45;3.30;;;8.50;99.90;;;;;;5007514;28;20097;-88
2021/10/17 04:15:35;;;;;;;7.85;2.20;;;8.50;99.90;;;;;;5007089;28;20045;-88
2021/10/17 04:18:01;;;;;;;6.43;2.53;;;8.50;99.90;;;;;;5007289;28;20050;-88
2021/10/17 04:20:27;;;;;;;5.90;2.30;;;8.50;99.90;;;;;;5007118;28;20031;-88
2021/10/17 04:22:52;;;;;;;8.48;2.72;;;8.50;99.90;;;;;;5007252;28;20045;-89
2021/10/17 04:25:18;;;;;;;9.23;2.72;;;8.50;99.90;;;;;;5006864;28;20030;-88
2021/10/17 04:27:47;;;;;;;9.63;3.10;;;8.50;99.90;;;;;;5007016;28;20037;-88
2021/10/17 04:30:12;;;;;;;9.80;3.33;;;8.50;99.90;;;;;;5007132;28;20100;-88
2021/10/17 04:32:38;;;;;;;6.32;3.03;;;8.50;99.90;;;;;;5006855;28;20034;-86
2021/10/17 04:35:04;;;;;;;7.18;2.83;;;8.50;99.90;;;;;;5007068;28;20034;-87
2021/10/17 04:37:30;;;;;;;9.65;2.72;;;8.50;99.90;;;;;;5006793;28;20034;-88
2021/10/17 04:39:56;;;;;;;7.03;2.22;;;8.50;99.90;;;;;;5006804;28;20387;-88
2021/10/17 04:42:23;;;;;;;9.40;3.15;;;8.50;99.90;;;;;;5006577;28;20034;-87
2021/10/17 04:45:10;;;;;;;5.40;2.88;;;8.40;99.90;;;;;;5006707;28;20057;-87
2021/10/17 04:47:35;;;;;;;5.70;3.38;;;8.40;99.90;;;;;;4934891;29;20079;-88
2021/10/17 04:50:03;;;;;;;9.07;3.50;;;8.40;99.90;;;;;;4950664;29;20067;-87
2021/10/17 04:52:28;;;;;;;9.93;3.60;;;8.50;99.90;;;;;;4934487;29;20110;-88
2021/10/17 04:54:54;;;;;;;9.00;3.90;;;8.50;99.90;;;;;;4950491;29;20044;-87
2021/10/17 04:57:23;;;;;;;10.88;4.40;;;8.40;99.90;;;;;;4950297;29;20051;-88
2021/10/17 04:59:49;;;;;;;7.22;3.83;;;8.50;99.90;;;;;;4950547;28;20141;-88
2021/10/17 05:02:16;;;;;;;9.18;4.35;;;8.40;99.90;;;;;;4966464;29;20082;-87
2021/10/17 05:04:42;;;;;;;8.70;4.03;;;8.40;99.90;;;;;;4950587;29;20036;-88
2021/10/17 05:07:07;;;;;;;6.47;3.80;;;8.40;99.90;;;;;;4950318;29;20122;-88
2021/10/17 05:09:35;;;;;;;8.52;3.53;;;8.40;99.90;;;;;;4950485;29;20036;-88
2021/10/17 05:12:00;;;;;;;4.90;2.95;;;8.40;99.90;;;;;;4950138;29;20123;-88
2021/10/17 05:14:26;;;;;;;7.35;2.97;;;8.40;99.90;;;;;;4950129;29;20031;-87
2021/10/17 05:16:53;;;;;;;6.68;3.75;;;8.40;99.90;;;;;;4950074;29;20039;-88
2021/10/17 05:19:19;;;;;;;5.82;2.92;;;8.30;99.90;;;;;;4950284;29;20035;-88
2021/10/17 05:21:46;;;;;;;8.38;3.38;;;8.40;99.90;;;;;;4934113;29;20035;-88
2021/10/17 05:24:12;;;;;;;7.93;2.80;;;8.40;99.90;;;;;;4968893;28;20048;-88
2021/10/17 05:26:38;;;;;;;6.05;2.83;;;8.30;99.90;;;;;;4993075;28;20034;-88
2021/10/17 05:29:04;;;;;;;8.25;2.85;;;8.30;99.90;;;;;;4993283;28;20113;-87
2021/10/17 05:31:29;;;;;;;6.53;2.78;;;8.30;99.90;;;;;;4993334;28;20390;-87
2021/10/17 05:33:56;;;;;;;6.72;2.70;;;8.20;99.90;;;;;;4993660;28;20026;-87
2021/10/17 05:36:21;;;;;;;12.57;3.20;;;8.20;99.90;;;;;;4994617;28;20049;-88
2021/10/17 05:38:52;;;;;;;4.82;2.22;;;8.20;99.90;;;;;;5009034;28;20025;-88
2021/10/17 05:41:17;;;;;;;6.75;2.55;;;8.20;99.90;;;;;;4992949;28;20096;-88
2021/10/17 05:43:43;;;;;;;6.45;2.45;;;8.10;99.90;;;;;;4992752;28;20084;-89
2021/10/17 05:46:09;;;;;;;6.35;2.70;;;8.10;99.90;;;;;;4992739;28;20033;-89
2021/10/17 05:48:35;;;;;;;7.15;3.03;;;8.10;99.90;;;;;;4989465;28;20026;-88
2021/10/17 05:51:01;;;;;;;7.32;3.08;;;8.10;99.90;;;;;;5005634;28;20544;-88
2021/10/17 05:53:27;;;;;;;5.03;2.60;;;8.10;99.90;;;;;;5005548;28;20056;-88
2021/10/17 05:55:53;;;;;;;7.18;2.80;;;8.10;99.90;;;;;;4993699;28;20025;-88
2021/10/17 05:58:19;;;;;;;5.70;2.13;;;8.10;99.90;;;;;;4992404;28;20117;-88
2021/10/17 06:00:45;;;;;;;8.65;3.13;;;8.10;99.90;;;;;;5008892;28;20056;-87
2021/10/17 06:03:11;;;;;;;6.20;2.47;;;8.10;99.90;;;;;;4992756;28;20032;-88
2021/10/17 06:06:01;;;;;;;5.05;1.65;;;8.10;99.90;;;;;;4998471;28;20034;-89
2021/10/17 06:08:27;;;;;;;;;;;8.10;99.90;;;;;;4992945;28;20049;-87
2021/10/17 06:10:54;;;;;;;5.47;2.30;;;8.10;99.90;;;;;;5025295;28;20112;-88
2021/10/17 06:13:20;;;;;;;4.93;1.92;;;8.10;99.90;;;;;;5011072;28;20044;-88
2021/10/17 06:15:47;;;;;;;8.00;2.17;;;8.10;99.90;;;;;;4996377;28;20116;-88
2021/10/17 06:18:13;;;;;;;6.45;1.90;;;8.10;99.90;;;;;;4996558;28;20038;-87
2021/10/17 06:20:39;;;;;;;3.92;2.17;;;8.20;99.90;;;;;;5012859;28;20056;-88
2021/10/17 06:23:05;;;;;;;4.20;1.80;;;8.20;99.90;;;;;;4995998;28;20033;-88
2021/10/17 06:25:31;;;;;;;4.43;1.80;;;8.20;99.90;;;;;;4996285;28;20026;-89
2021/10/17 06:27:57;;;;;;;3.50;1.92;;;8.30;99.90;;;;;;5011968;28;20176;-87
2021/10/17 06:30:23;;;;;;;6.20;1.83;;;8.30;99.90;;;;;;4995780;28;20030;-88
2021/10/17 06:32:49;;;;;;;7.75;2.10;;;8.30;99.90;;;;;;4995553;28;20034;-88
2021/10/17 06:35:17;;;;;;;5.03;1.90;;;8.30;99.90;;;;;;4995597;28;20094;-88
2021/10/17 06:37:43;;;;;;;6.32;3.25;;;8.30;99.90;;;;;;4995084;28;20071;-88
2021/10/17 06:40:10;;;;;;;5.85;1.85;;;8.30;99.90;;;;;;4995489;28;20041;-88
2021/10/17 06:42:37;;;;;;;6.97;2.58;;;8.30;99.90;;;;;;5011625;28;20092;-88
2021/10/17 06:45:30;;;;;;;6.47;2.03;;;8.30;99.90;;;;;;4999021;28;20025;-88
2021/10/17 06:47:56;;;;;;;6.82;2.28;;;8.40;99.90;;;;;;4991707;28;20117;-88
2021/10/17 06:50:23;;;;;;;7.32;2.15;;;8.40;99.90;;;;;;5007793;28;20033;-88
2021/10/17 06:52:50;;;;;;;5.30;2.20;;;8.40;99.90;;;;;;5007888;28;20023;-87
2021/10/17 06:55:16;;;;;;;5.38;1.83;;;8.40;99.90;;;;;;5011153;28;20029;-87
2021/10/17 06:57:42;;;;;;;3.78;1.77;;;8.50;99.90;;;;;;4991531;28;20070;-88
2021/10/17 07:00:08;;;;;;;7.93;2.03;;;8.50;99.90;;;;;;4991840;28;20518;-88
2021/10/17 07:02:38;;;;;;;6.35;2.30;;;8.60;99.90;;;;;;4992329;28;20120;-88
2021/10/17 07:05:07;;;;;;;8.45;2.00;;;8.60;99.90;;;;;;4991475;28;20018;-88
2021/10/17 07:07:33;;;;;;;6.63;2.25;;;8.60;99.90;;;;;;5007864;28;20041;-87
2021/10/17 07:10:00;;;;;;;7.50;2.42;;;8.70;99.90;;;;;;4991593;28;20176;-88
2021/10/17 07:12:46;;;;;;;4.70;2.47;;;8.80;99.90;;;;;;5007484;28;20458;-88
2021/10/17 07:15:12;;;;;;;7.35;2.75;;;8.80;99.90;;;;;;5007478;28;20030;-88
2021/10/17 07:17:51;;;;;;;9.63;2.80;;;8.90;99.90;;;;;;4993258;28;20038;-88
2021/10/17 07:20:16;;;;;;;7.30;2.20;;;9.00;99.90;;;;;;4991470;28;20081;-88
2021/10/17 07:22:42;;;;;;;6.07;2.67;;;9.00;99.90;;;;;;4991055;28;20038;-88
2021/10/17 07:25:08;;;;;;;6.53;2.50;;;9.10;99.90;;;;;;4991087;28;20027;-87
2021/10/17 07:27:33;;;;;;;9.48;2.60;;;9.20;99.90;;;;;;4991350;28;20037;-87
2021/10/17 07:29:59;;;;;;;8.90;2.70;;;9.30;99.90;;;;;;4991170;28;20110;-87
2021/10/17 07:32:25;;;;;;;7.40;2.17;;;9.30;99.90;;;;;;4991256;28;20102;-87
2021/10/17 07:34:51;;;;;;;5.95;2.38;;;9.30;99.90;;;;;;4991102;28;20050;-87
2021/10/17 07:37:21;;;;;;;6.82;2.88;;;9.30;99.90;;;;;;4991684;28;20034;-87
2021/10/17 07:39:47;;;;;;;5.80;2.47;;;9.30;99.90;;;;;;5007869;28;20034;-86
2021/10/17 07:42:13;;;;;;;6.68;2.60;;;9.30;99.90;;;;;;4997294;28;20054;-88
2021/10/17 07:45:00;;;;;;;7.32;2.88;;;9.30;99.90;;;;;;5005357;28;20025;-86
2021/10/17 07:47:36;;;;;;;7.78;2.63;;;9.30;99.90;;;;;;4946374;29;20050;-87
2021/10/17 07:50:10;;;;;;;6.57;1.92;;;9.40;99.90;;;;;;4929221;29;20044;-88
2021/10/17 07:52:40;;;;;;;14.90;5.38;;;9.40;99.90;;;;;;4936697;29;20532;-87
2021/10/17 07:55:16;;;;;;;14.45;5.45;;;9.40;99.90;;;;;;4942927;29;20079;-87
2021/10/17 07:57:51;;;;;;;10.63;5.35;;;9.40;99.90;;;;;;4939405;29;20185;-86
2021/10/17 08:00:26;;;;;;;9.45;4.50;;;9.60;99.90;;;;;;4934868;29;20087;-87
2021/10/17 08:03:15;;;;;;;12.68;5.55;;;9.80;99.90;;;;;;4939874;29;20118;-87
2021/10/17 08:05:46;;;;;;;13.50;5.38;;;9.70;99.90;;;;;;4924847;29;20062;-83
2021/10/17 08:08:15;;;;;;;10.10;5.15;;;9.70;99.90;;;;;;4943117;29;20038;-86
2021/10/17 08:10:42;;;;;;;12.10;5.57;;;10.00;99.90;;;;;;4926654;29;20058;-87
2021/10/17 08:13:17;;;;;;;10.32;4.72;;;10.00;99.90;;;;;;4924608;29;20028;-88
2021/10/17 08:15:48;;;;;;;10.00;3.88;;;10.10;99.90;;;;;;4925182;29;20027;-86
2021/10/17 08:18:15;;;;;;;11.15;3.53;;;10.20;99.90;;;;;;4947281;29;20155;-87
2021/10/17 08:20:53;;;;;;;10.25;4.82;;;10.20;99.90;;;;;;4942083;29;20052;-82
2021/10/17 08:23:19;;;;;;;11.82;4.43;;;10.20;99.90;;;;;;4932001;28;20166;-85
2021/10/17 08:25:45;;;;;;;10.07;5.00;;;10.40;99.90;;;;;;5009361;28;20022;-80
2021/10/17 08:28:12;;;;;;;10.90;4.95;;;10.50;99.90;;;;;;5025984;28;20093;-81
2021/10/17 08:30:38;;;;;;;7.70;4.00;;;10.60;99.90;;;;;;5009410;28;20060;-81
2021/10/17 08:33:26;;;;;;;11.68;3.65;;;10.60;99.90;;;;;;5009393;28;20076;-84
2021/10/17 08:35:52;;;;;;;10.20;3.70;;;10.70;99.90;;;;;;5005962;28;20057;-80
2021/10/17 08:38:18;;;;;;;8.80;3.33;;;10.70;99.90;;;;;;5009225;28;20092;-81
2021/10/17 08:40:51;;;;;;;8.02;3.38;;;10.70;99.90;;;;;;5009711;28;20113;-84
2021/10/17 08:43:23;;;;;;;8.35;4.20;;;10.70;99.90;;;;;;5010071;28;20117;-82
2021/10/17 08:45:59;;;;;;;7.28;3.47;;;10.70;99.90;;;;;;5010954;28;20034;-81
2021/10/17 08:48:33;;;;;;;7.95;3.50;;;10.70;99.90;;;;;;4994854;28;20070;-81
2021/10/17 08:51:01;;;;;;;7.22;3.30;;;10.70;99.90;;;;;;5006659;28;20030;-81
2021/10/17 08:53:40;;;;;;;7.93;3.22;;;10.80;99.90;;;;;;5009169;28;20044;-82
2021/10/17 08:56:15;;;;;;;6.85;3.05;;;10.90;99.90;;;;;;5002345;28;20029;-85
2021/10/17 08:58:43;;;;;;;6.78;3.13;;;10.90;99.90;;;;;;5005093;28;20010;-83
2021/10/17 09:01:17;;;;;;;7.82;3.33;;;11.00;99.90;;;;;;5005719;28;20010;-85
2021/10/17 09:03:55;;;;;;;10.50;3.97;;;11.10;99.90;;;;;;5021037;28;20093;-87
2021/10/17 09:06:29;;;;;;;10.65;4.30;;;11.10;99.90;;;;;;5005588;28;20026;-85
2021/10/17 09:09:10;;;;;;;7.00;3.45;;;11.10;99.90;;;;;;5021485;28;20018;-86
2021/10/17 09:11:50;;;;;;;5.78;3.08;;;11.10;99.90;;;;;;5005063;28;20049;-85
2021/10/17 09:14:24;;;;;;;8.55;3.28;;;11.10;99.90;;;;;;5004902;28;20022;-86
2021/10/17 09:16:52;;;;;;;5.13;2.67;;;11.20;99.90;;;;;;5004961;28;20033;-87
2021/10/17 09:19:23;;;;;;;7.00;2.65;;;11.30;99.90;;;;;;5005006;28;20033;-87
2021/10/17 09:21:55;;;;;;;4.18;1.83;;;11.40;99.90;;;;;;5021108;28;20045;-86
2021/10/17 09:24:33;;;;;;;7.70;3.70;;;11.50;99.90;;;;;;5005061;28;20494;-86
2021/10/17 09:27:06;;;;;;;6.80;2.50;;;11.50;99.90;;;;;;5004434;28;20022;-86
2021/10/17 09:29:32;;;;;;;5.45;1.83;;;11.50;99.90;;;;;;5004362;28;20024;-86
2021/10/17 09:31:58;;;;;;;8.77;2.20;;;11.60;99.90;;;;;;5019262;28;20045;-85
2021/10/17 09:34:31;;;;;;;6.35;2.85;;;11.60;99.90;;;;;;4997028;28;20030;-85
2021/10/17 09:37:11;;;;;;;3.97;2.13;;;11.50;99.90;;;;;;5013120;28;20050;-86
2021/10/17 09:40:21;;;;;;;5.70;2.23;;;11.70;99.90;;;;;;5013888;28;20040;-84
2021/10/17 09:43:05;;;;;;;5.93;2.10;;;11.80;99.90;;;;;;5000322;28;20303;-85
2021/10/17 09:45:39;;;;;;;5.95;2.50;;;11.80;99.90;;;;;;4999538;28;20030;-87
2021/10/17 09:48:07;;;;;;;6.95;2.75;;;11.90;99.90;;;;;;5007033;28;20073;-87
2021/10/17 09:50:33;;;;;;;6.93;2.60;;;12.00;99.90;;;;;;5008139;28;20524;-87
2021/10/17 09:53:01;;;;;;;4.80;2.20;;;11.90;99.90;;;;;;5007836;28;20034;-87
2021/10/17 09:55:28;;;;;;;7.15;2.90;;;12.00;99.90;;;;;;5007721;28;20026;-87
2021/10/17 09:57:53;;;;;;;6.85;2.58;;;12.10;99.90;;;;;;4991950;28;20192;-87
2021/10/17 10:00:20;;;;;;;7.07;2.88;;;12.10;99.90;;;;;;5007973;28;20034;-87
2021/10/17 10:02:47;;;;;;;4.03;1.63;;;12.00;99.90;;;;;;4991931;28;20081;-87
2021/10/17 10:05:27;;;;;;;4.25;1.80;;;12.00;99.90;;;;;;4991744;28;20030;-87
2021/10/17 10:08:06;;;;;;;8.80;2.60;;;12.10;99.90;;;;;;4991832;28;20026;-87
2021/10/17 10:10:33;;;;;;;5.85;2.42;;;12.10;99.90;;;;;;4991908;28;20076;-87
2021/10/17 10:13:02;;;;;;;9.10;2.78;;;12.10;99.90;;;;;;4991702;28;20034;-89
2021/10/17 10:15:29;;;;;;;6.53;2.88;;;12.30;99.90;;;;;;4991750;28;20034;-88
2021/10/17 10:17:56;;;;;;;7.70;2.88;;;12.50;99.90;;;;;;4991446;28;20102;-89
2021/10/17 10:20:23;;;;;;;6.50;1.80;;;12.60;99.90;;;;;;4991990;28;20045;-89
2021/10/17 10:22:51;;;;;;;5.07;1.80;;;12.80;99.90;;;;;;4991497;28;20053;-89
2021/10/17 10:25:17;;;;;;;4.93;2.70;;;12.80;99.90;;;;;;4992042;28;20093;-89
2021/10/17 10:27:48;;;;;;;5.22;2.20;;;12.80;99.90;;;;;;4992070;28;20037;-87
2021/10/17 10:30:25;;;;;;;7.47;2.63;;;12.90;99.90;;;;;;4994278;28;20040;-88
2021/10/17 10:33:10;;;;;;;11.30;3.33;;;12.80;99.90;;;;;;5014094;28;20026;-88
2021/10/17 10:35:36;;;;;;;5.72;3.15;;;12.90;99.90;;;;;;5004847;28;20175;-88
2021/10/17 10:38:02;;;;;;;6.60;2.45;;;12.70;99.90;;;;;;5010963;28;20041;-89
2021/10/17 10:40:28;;;;;;;8.48;2.83;;;12.90;99.90;;;;;;5011112;28;20043;-87
2021/10/17 10:42:54;;;;;;;5.53;3.13;;;13.10;99.90;;;;;;5010624;28;20041;-88
2021/10/17 10:45:34;;;;;;;4.35;1.55;;;13.20;99.90;;;;;;5011893;28;20030;-89
2021/10/17 10:48:12;;;;;;;9.48;3.22;;;13.00;99.90;;;;;;5003351;28;20030;-88
2021/10/17 10:50:49;;;;;;;7.45;2.83;;;12.90;99.90;;;;;;5009055;28;20061;-88
2021/10/17 10:53:47;;;;;;;6.40;2.78;;;12.80;99.90;;;;;;5007433;28;20050;-88
2021/10/17 10:56:44;;;;;;;5.10;2.08;;;13.00;99.90;;;;;;4987755;28;20135;-88
2021/10/17 10:59:10;;;;;;;10.35;2.78;;;13.30;99.90;;;;;;4973833;28;20038;-88
2021/10/17 11:01:56;;;;;;;5.38;2.70;;;13.40;99.90;;;;;;4975578;28;20038;-88
2021/10/17 11:04:37;;;;;;;9.18;3.45;;;13.50;99.90;;;;;;4975459;28;20053;-88
2021/10/17 11:07:39;;;;;;;5.22;2.15;;;13.20;99.90;;;;;;4991910;28;20097;-89
2021/10/17 11:10:26;;;;;;;6.68;2.10;;;13.30;99.90;;;;;;4975383;28;20493;-87
2021/10/17 11:12:58;;;;;;;8.85;2.97;;;13.50;99.90;;;;;;4991100;28;20078;-87
2021/10/17 11:15:25;;;;;;;8.43;3.55;;;13.50;99.90;;;;;;4975072;28;20034;-88
2021/10/17 11:17:52;;;;;;;9.18;2.60;;;13.50;99.90;;;;;;4991014;28;20049;-87
2021/10/17 11:20:20;;;;;;;8.07;3.38;;;13.60;99.90;;;;;;5014436;28;20355;-88
2021/10/17 11:22:46;;;;;;;6.35;2.22;;;13.60;99.90;;;;;;5010289;28;20147;-87
2021/10/17 11:25:15;;;;;;;7.78;2.88;;;14.00;99.90;;;;;;5014142;28;20450;-87
2021/10/17 11:27:46;;;;;;;7.00;2.42;;;13.80;99.90;;;;;;5020998;28;20018;-89
2021/10/17 11:30:19;;;;;;;6.70;3.00;;;13.90;99.90;;;;;;5014221;28;20092;-88
2021/10/17 11:32:45;;;;;;;7.47;3.72;;;13.90;99.90;;;;;;5013100;28;20038;-88
2021/10/17 11:35:10;;;;;;;7.45;2.20;;;13.80;99.90;;;;;;5011024;28;20029;-88
2021/10/17 11:37:38;;;;;;;7.78;2.28;;;14.10;99.90;;;;;;4997193;28;20403;-89
2021/10/17 11:40:08;;;;;;;4.28;2.00;;;14.30;99.90;;;;;;5026924;28;20033;-88
2021/10/17 11:43:14;;;;;;;10.02;2.92;;;14.50;99.90;;;;;;5010919;28;20040;-88
2021/10/17 11:45:45;;;;;;;6.43;1.88;;;14.40;99.90;;;;;;5023026;28;20092;-88
2021/10/17 11:48:16;;;;;;;9.05;2.05;;;14.50;99.90;;;;;;4992140;28;20030;-88
2021/10/17 11:50:46;;;;;;;5.93;2.25;;;14.50;99.90;;;;;;5000335;28;20034;-88
2021/10/17 11:53:13;;;;;;;;;;;14.60;99.90;;;;;;4991796;28;20042;-88
2021/10/17 11:55:41;;;;;;;5.55;2.28;;;14.70;99.90;;;;;;5012335;28;20309;-88
2021/10/17 11:58:18;;;;;;;5.32;2.88;;;14.70;99.90;;;;;;4974419;28;20078;-88
2021/10/17 12:00:46;;;;;;;4.15;1.98;;;14.50;99.90;;;;;;4990599;28;20049;-87
2021/10/17 12:03:15;;;;;;;7.53;3.38;;;14.70;99.90;;;;;;4990794;28;20042;-88
2021/10/17 12:05:43;;;;;;;4.03;2.05;;;14.60;99.90;;;;;;4974465;28;20054;-88
2021/10/17 12:08:17;;;;;;;5.80;2.15;;;14.70;99.90;;;;;;4974317;28;20033;-87
2021/10/17 12:10:52;;;;;;;5.65;1.73;;;14.80;99.90;;;;;;4989358;28;20395;-87
2021/10/17 12:13:18;;;;;;;4.40;2.10;;;14.90;99.90;;;;;;4990233;28;20031;-89
2021/10/17 12:15:43;;;;;;;3.42;1.83;;;14.80;99.90;;;;;;4973905;28;20116;-87
2021/10/17 12:18:09;;;;;;;4.47;1.70;;;14.80;99.90;;;;;;4974290;28;20042;-88
2021/10/17 12:20:34;;;;;;;5.22;2.30;;;14.70;99.90;;;;;;4974366;28;20065;-88
2021/10/17 12:23:01;;;;;;;5.57;1.60;;;14.70;99.90;;;;;;4973767;28;20039;-87
2021/10/17 12:25:46;;;;;;;5.38;1.95;;;14.60;99.90;;;;;;4992390;28;20049;-87
2021/10/17 12:28:16;;;;;;;6.85;2.30;;;14.60;99.90;;;;;;4973578;28;20057;-89
2021/10/17 12:30:48;;;;;;;5.80;1.95;;;14.30;99.90;;;;;;4974146;28;20061;-87
2021/10/17 12:33:33;;;;;;;6.05;2.22;;;14.20;99.90;;;;;;4973779;28;20041;-88
2021/10/17 12:36:02;;;;;;;4.72;1.40;;;14.40;99.90;;;;;;4989988;28;20027;-88
2021/10/17 12:38:31;;;;;;;5.57;1.95;;;14.50;99.90;;;;;;4973484;28;20041;-88
2021/10/17 12:41:07;;;;;;;6.35;1.38;;;14.20;99.90;;;;;;4973147;28;20038;-87
2021/10/17 12:43:38;;;;;;;4.15;1.60;;;14.30;99.90;;;;;;4973669;28;20054;-88
2021/10/17 12:46:12;;;;;;;6.18;2.42;;;14.30;99.90;;;;;;4973243;28;20030;-88
2021/10/17 12:48:41;;;;;;;7.30;2.42;;;14.20;99.90;;;;;;4973557;28;20030;-87
2021/10/17 12:51:27;;;;;;;3.88;1.30;;;14.20;99.90;;;;;;4973602;28;20053;-88
2021/10/17 12:54:11;;;;;;;6.43;2.03;;;14.30;99.90;;;;;;4973195;28;20112;-86
2021/10/17 12:56:41;;;;;;;3.38;1.02;;;14.10;99.90;;;;;;4972833;28;20058;-86
2021/10/17 12:59:13;;;;;;;4.07;1.13;;;14.20;99.90;;;;;;4973250;28;20507;-87
2021/10/17 13:01:58;;;;;;;4.72;1.13;;;14.20;99.90;;;;;;4989178;28;20039;-87
2021/10/17 13:04:37;;;;;;;4.45;1.45;;;14.20;99.90;;;;;;4973241;28;20034;-88
2021/10/17 13:07:03;;;;;;;4.35;1.67;;;14.20;99.90;;;;;;4989205;28;20031;-87